createdAt,value
2023-01-17T00:02:24.170Z,5.50
2023-01-17T00:05:10.919Z,5.60
2023-01-17T00:07:57.432Z,7.20
2023-01-17T00:10:27.861Z,6.40
2023-01-17T00:12:57.589Z,6.00
2023-01-17T00:15:26.889Z,6.00
2023-01-17T00:17:54.928Z,5.90
2023-01-17T00:20:51.161Z,6.60
2023-01-17T00:23:43.899Z,6.90
2023-01-17T00:26:15.677Z,6.10
2023-01-17T00:31:13.701Z,6.50
2023-01-17T00:33:41.611Z,6.00
2023-01-17T00:36:10.313Z,6.90
2023-01-17T00:38:39.776Z,5.70
2023-01-17T00:41:09.210Z,6.00
2023-01-17T00:43:55.820Z,6.60
2023-01-17T00:46:42.486Z,6.40
2023-01-17T00:49:29.224Z,7.00
2023-01-17T00:52:15.826Z,7.00
2023-01-17T00:55:02.118Z,6.20
2023-01-17T00:57:49.143Z,6.70
2023-01-17T07:01:13.305Z,8.10
2023-01-17T07:03:42.910Z,6.70
2023-01-17T07:06:10.978Z,7.80
2023-01-17T07:08:38.799Z,8.10
2023-01-17T07:11:08.385Z,8.40
2023-01-17T07:13:37.997Z,6.60
2023-01-17T07:16:07.710Z,6.20
2023-01-17T07:18:35.551Z,6.50
2023-01-17T07:21:03.543Z,7.30
2023-01-17T07:23:31.504Z,6.30
2023-01-17T07:26:00.813Z,5.50
2023-01-17T07:28:29.099Z,6.90
2023-01-17T07:30:57.540Z,6.40
2023-01-17T07:33:25.507Z,5.60
2023-01-17T07:35:53.385Z,5.50
2023-01-17T07:38:21.276Z,8.20
2023-01-17T07:40:49.265Z,7.00
2023-01-17T07:43:17.480Z,6.30
2023-01-17T07:45:50.985Z,7.20
2023-01-17T07:48:21.308Z,5.90
2023-01-17T07:50:56.954Z,5.60
2023-01-17T07:53:30.051Z,5.90
2023-01-17T07:56:02.715Z,6.60
2023-01-17T07:58:31.401Z,6.80
2023-01-17T08:01:07.906Z,6.10
2023-01-17T08:03:40.082Z,8.30
2023-01-17T08:06:25.614Z,6.90
2023-01-17T08:08:56.661Z,6.10
2023-01-17T08:11:25.270Z,5.50
2023-01-17T08:13:57.603Z,6.10
2023-01-17T08:16:27.181Z,7.00
2023-01-17T08:18:56.401Z,5.60
2023-01-17T08:21:24.427Z,5.60
2023-01-17T08:23:52.860Z,5.50
2023-01-17T08:26:22.415Z,7.40
2023-01-17T08:29:01.076Z,5.20
2023-01-17T08:31:31.961Z,6.30
2023-01-17T08:34:00.123Z,6.10
2023-01-17T08:36:28.837Z,5.40
2023-01-17T08:38:57.615Z,4.80
2023-01-17T08:41:27.844Z,6.00
2023-01-17T08:43:55.648Z,5.80
2023-01-17T08:46:24.578Z,5.80
2023-01-17T08:48:58.860Z,6.40
2023-01-17T08:51:27.867Z,5.50
2023-01-17T08:53:56.631Z,5.10
2023-01-17T08:56:26.139Z,6.20
2023-01-17T08:58:54.042Z,7.30
2023-01-17T09:01:21.905Z,5.40
2023-01-17T09:03:51.528Z,5.40
2023-01-17T09:06:19.490Z,4.70
2023-01-17T09:08:48.643Z,5.60
2023-01-17T09:11:17.548Z,5.80
2023-01-17T09:13:45.398Z,5.60
2023-01-17T09:16:13.305Z,5.70
2023-01-17T09:18:41.062Z,6.90
2023-01-17T09:21:18.894Z,6.10
2023-01-17T09:26:29.101Z,5.10
2023-01-17T09:28:58.834Z,5.80
2023-01-17T09:31:29.854Z,5.30
2023-01-17T09:33:58.528Z,5.60
2023-01-17T09:36:29.244Z,6.50
2023-01-17T09:38:58.363Z,4.80
2023-01-17T09:41:42.815Z,5.40
2023-01-17T09:44:36.590Z,6.30
2023-01-17T09:47:40.769Z,5.70
2023-01-17T09:50:20.804Z,4.90
2023-01-17T09:52:48.591Z,5.40
2023-01-17T09:55:17.792Z,5.60
2023-01-17T09:58:20.496Z,4.40
2023-01-17T10:01:12.373Z,6.20
2023-01-17T10:04:01.692Z,5.70
2023-01-17T10:06:43.701Z,5.20
2023-01-17T10:09:41.713Z,6.10
2023-01-17T10:12:28.571Z,5.60
2023-01-17T10:15:45.286Z,4.90
2023-01-17T10:18:28.894Z,4.90
2023-01-17T10:21:08.968Z,5.30
2023-01-17T10:24:21.377Z,5.30
2023-01-17T10:26:52.989Z,5.60
2023-01-17T10:29:21.244Z,6.00
2023-01-17T10:31:59.238Z,4.80
2023-01-17T10:37:20.540Z,6.50
2023-01-17T10:39:50.222Z,4.90
2023-01-17T10:42:32.970Z,4.80
2023-01-17T10:45:16.699Z,5.40
2023-01-17T10:47:51.942Z,5.50
2023-01-17T10:50:22.695Z,5.90
2023-01-17T10:52:51.697Z,5.10
2023-01-17T10:55:47.589Z,5.40
2023-01-17T10:58:15.456Z,5.60
2023-01-17T11:00:49.472Z,6.10
2023-01-17T11:03:24.054Z,5.60
2023-01-17T11:06:22.380Z,5.10
2023-01-17T11:08:52.439Z,6.30
2023-01-17T11:11:23.742Z,6.20
2023-01-17T11:13:55.190Z,5.20
2023-01-17T11:16:29.800Z,5.30
2023-01-17T11:19:08.823Z,5.00
2023-01-17T11:21:39.560Z,5.30
2023-01-17T11:24:17.885Z,4.20
2023-01-17T11:26:49.649Z,5.80
2023-01-17T11:29:37.250Z,5.60
2023-01-17T11:32:23.882Z,5.30
2023-01-17T11:35:10.062Z,5.30
2023-01-17T11:37:38.026Z,4.40
2023-01-17T11:40:17.055Z,5.10
2023-01-17T11:42:45.123Z,4.70
2023-01-17T11:45:26.105Z,5.50
2023-01-17T11:48:09.655Z,5.00
2023-01-17T11:50:56.257Z,5.00
2023-01-17T11:53:24.204Z,5.10
2023-01-17T11:56:05.450Z,5.70
2023-01-17T11:58:36.876Z,5.80
2023-01-17T12:03:44.868Z,5.70
2023-01-17T12:06:56.562Z,5.70
2023-01-17T12:09:37.637Z,5.50
2023-01-17T12:12:30.060Z,5.50
2023-01-17T12:15:22.908Z,4.90
2023-01-17T12:18:09.973Z,6.60
2023-01-17T12:20:41.691Z,5.70
2023-01-17T12:23:28.547Z,5.80
2023-01-17T12:26:09.228Z,7.30
2023-01-17T12:29:06.727Z,6.50
2023-01-17T12:31:52.925Z,6.40
2023-01-17T12:34:34.703Z,6.10
2023-01-17T12:37:18.369Z,5.70
2023-01-17T12:39:56.151Z,5.40
2023-01-17T12:45:06.126Z,5.90
2023-01-17T12:47:43.100Z,5.70
2023-01-17T12:50:28.865Z,5.80
2023-01-17T12:53:06.635Z,6.70
2023-01-17T12:58:25.249Z,6.50
2023-01-17T13:01:19.398Z,6.70
2023-01-17T13:04:25.701Z,5.80
2023-01-17T13:07:00.163Z,5.60
2023-01-17T13:09:51.817Z,4.90
2023-01-17T13:12:22.140Z,6.80
2023-01-17T13:14:50.228Z,5.80
2023-01-17T13:17:35.176Z,6.40
2023-01-17T13:20:32.127Z,5.50
2023-01-17T13:23:28.563Z,5.40
2023-01-17T13:25:59.464Z,6.90
2023-01-17T13:28:44.695Z,5.90
2023-01-17T13:31:34.906Z,5.50
2023-01-17T13:37:09.507Z,5.60
2023-01-17T13:40:26.900Z,5.30
2023-01-17T13:42:57.355Z,5.90
2023-01-17T13:45:31.309Z,6.30
2023-01-17T13:48:17.353Z,7.30
2023-01-17T13:50:48.793Z,6.80
2023-01-17T13:56:31.769Z,5.40
2023-01-17T13:59:02.911Z,4.80
2023-01-17T14:01:38.629Z,6.90
2023-01-17T14:04:11.211Z,6.70
2023-01-17T14:06:44.917Z,7.30
2023-01-17T14:09:12.695Z,6.50
2023-01-17T14:11:51.806Z,6.70
2023-01-17T14:14:44.502Z,7.60
2023-01-17T14:17:19.078Z,6.60
2023-01-17T14:19:50.250Z,6.80
2023-01-17T14:22:20.911Z,13.70
2023-01-17T14:25:19.844Z,14.10
2023-01-17T14:27:51.696Z,18.80
2023-01-17T14:30:24.481Z,16.80
2023-01-17T14:33:10.879Z,16.60
2023-01-17T14:35:48.787Z,17.00
2023-01-17T14:38:22.335Z,13.50
2023-01-17T14:40:54.379Z,14.30
2023-01-17T14:43:25.255Z,13.60
2023-01-17T14:46:02.222Z,13.80
2023-01-17T14:48:30.637Z,10.70
2023-01-17T14:51:02.015Z,11.80
2023-01-17T14:53:32.011Z,9.80
2023-01-17T14:56:12.668Z,9.30
2023-01-17T14:58:41.584Z,11.10
2023-01-17T15:01:18.899Z,9.50
2023-01-17T15:03:49.074Z,8.40
2023-01-17T15:06:23.628Z,13.90
2023-01-17T15:08:54.240Z,12.90
2023-01-17T15:11:26.581Z,13.20
2023-01-17T15:13:57.660Z,11.70
2023-01-17T15:16:29.328Z,12.20
2023-01-17T15:18:57.725Z,10.30
2023-01-17T15:21:31.639Z,11.90
2023-01-17T15:24:03.807Z,10.90
2023-01-17T15:26:35.487Z,11.40
2023-01-17T15:29:07.456Z,11.20
2023-01-17T15:31:46.103Z,11.50
2023-01-17T15:34:43.030Z,11.20
2023-01-17T15:37:41.505Z,9.30
2023-01-17T15:40:15.970Z,10.20
2023-01-17T15:42:47.724Z,10.70
2023-01-17T15:45:22.712Z,9.10
2023-01-17T15:47:50.599Z,10.30
2023-01-17T15:50:22.460Z,13.60
2023-01-17T15:52:52.655Z,18.40
2023-01-17T15:55:38.545Z,15.90
2023-01-17T15:58:24.536Z,17.10
2023-01-17T16:00:52.951Z,14.00
2023-01-17T16:03:25.386Z,14.30
2023-01-17T16:05:54.585Z,14.20
2023-01-17T16:08:27.255Z,15.40
2023-01-17T16:11:02.338Z,14.70
2023-01-17T16:13:35.913Z,14.10
2023-01-17T16:16:10.895Z,14.20
2023-01-17T16:18:40.468Z,13.20
2023-01-17T16:21:21.526Z,14.70
2023-01-17T16:23:50.079Z,14.00
2023-01-17T16:26:18.362Z,12.90
2023-01-17T16:28:47.047Z,13.10
2023-01-17T16:31:15.810Z,12.60
2023-01-17T16:33:44.254Z,12.70
2023-01-17T16:36:14.883Z,11.90
2023-01-17T16:38:48.852Z,13.80
2023-01-17T16:41:17.533Z,11.80
2023-01-17T16:43:45.400Z,12.80
2023-01-17T16:46:13.598Z,13.20
2023-01-17T16:48:41.440Z,12.10
2023-01-17T16:51:09.542Z,13.30
2023-01-17T16:53:37.824Z,15.30
2023-01-17T16:56:12.246Z,13.40
2023-01-17T16:58:40.683Z,12.80
2023-01-17T17:01:16.077Z,13.20
2023-01-17T17:03:44.763Z,13.40
2023-01-17T17:06:13.115Z,13.20
2023-01-17T17:08:41.156Z,12.70
2023-01-17T17:11:13.262Z,14.40
2023-01-17T17:13:49.488Z,14.10
2023-01-17T17:16:20.732Z,12.90
2023-01-17T17:18:55.662Z,13.40
2023-01-17T17:21:23.842Z,14.90
2023-01-17T17:23:57.056Z,15.10
2023-01-17T17:26:27.658Z,14.50
2023-01-17T17:28:55.630Z,15.30
2023-01-17T17:31:26.933Z,15.60
2023-01-17T17:33:59.480Z,16.50
2023-01-17T17:36:27.820Z,14.30
2023-01-17T17:38:56.719Z,14.90
2023-01-17T17:41:34.052Z,16.30
2023-01-17T17:44:03.613Z,14.30
2023-01-17T17:46:33.851Z,15.90
2023-01-17T17:49:01.991Z,16.20
2023-01-17T17:51:38.469Z,16.90
2023-01-17T17:54:09.844Z,17.50
2023-01-17T17:56:38.018Z,14.70
2023-01-17T17:59:09.283Z,19.20
2023-01-17T18:01:41.192Z,16.50
2023-01-17T18:04:12.400Z,19.60
2023-01-17T18:06:41.463Z,21.70
2023-01-17T18:09:11.556Z,20.90
2023-01-17T18:11:41.355Z,19.60
2023-01-17T18:14:12.606Z,17.60
2023-01-17T18:16:43.330Z,19.60
2023-01-17T18:19:17.304Z,18.30
2023-01-17T18:21:45.689Z,19.50
2023-01-17T18:24:17.096Z,17.00
2023-01-17T18:26:53.428Z,17.30
2023-01-17T18:29:22.248Z,18.70
2023-01-17T18:31:51.473Z,18.90
2023-01-17T18:34:24.172Z,18.40
2023-01-17T18:36:52.610Z,17.70
2023-01-17T18:39:29.329Z,19.20
2023-01-17T18:41:58.364Z,21.20
2023-01-17T18:44:27.543Z,17.40
2023-01-17T18:46:58.775Z,20.10
2023-01-17T18:49:26.817Z,21.10
2023-01-17T18:51:54.816Z,22.60
2023-01-17T18:54:22.681Z,21.90
2023-01-17T18:56:51.368Z,24.10
2023-01-17T18:59:19.851Z,22.50
2023-01-17T19:01:47.899Z,21.80
2023-01-17T19:04:17.320Z,22.10
2023-01-17T19:06:47.542Z,20.50
2023-01-17T19:09:16.487Z,22.30
2023-01-17T19:11:45.739Z,22.00
2023-01-17T19:14:14.630Z,20.20
2023-01-17T19:16:43.888Z,22.40
2023-01-17T19:19:15.109Z,21.90
2023-01-17T19:21:43.709Z,21.80
2023-01-17T19:24:13.440Z,24.50
2023-01-17T19:26:42.445Z,22.50
2023-01-17T19:29:10.634Z,23.50
2023-01-17T19:31:42.600Z,23.10
2023-01-17T19:34:13.961Z,21.70
2023-01-17T19:36:42.519Z,20.70
2023-01-17T19:39:10.498Z,24.20
2023-01-17T19:41:43.645Z,21.00
2023-01-17T19:44:13.387Z,20.70
2023-01-17T19:46:42.089Z,21.30
2023-01-17T19:49:10.528Z,21.50
2023-01-17T19:51:39.841Z,21.00
2023-01-17T19:54:08.577Z,20.80
2023-01-17T19:56:36.968Z,18.10
2023-01-17T19:59:04.798Z,20.30
2023-01-17T20:01:34.729Z,18.80
2023-01-17T20:04:03.645Z,20.90
2023-01-17T20:06:34.115Z,21.00
2023-01-17T20:09:02.376Z,22.20
2023-01-17T20:11:30.142Z,22.40
2023-01-17T20:13:59.986Z,19.80
2023-01-17T20:16:30.514Z,24.30
2023-01-17T20:18:59.542Z,25.40
2023-01-17T20:21:29.107Z,33.10
2023-01-17T20:23:59.292Z,37.10
2023-01-17T20:26:35.145Z,28.50
2023-01-17T20:29:11.923Z,23.60
2023-01-17T20:31:42.820Z,20.50
2023-01-17T20:34:13.083Z,20.80
2023-01-17T20:36:42.225Z,21.10
2023-01-17T20:39:12.509Z,20.20
2023-01-17T20:41:42.935Z,23.00
2023-01-17T20:44:13.822Z,23.00
2023-01-17T20:46:42.634Z,24.70
2023-01-17T20:49:15.174Z,23.70
2023-01-17T20:51:44.845Z,23.20
2023-01-17T20:54:15.147Z,24.00
2023-01-17T20:56:43.327Z,24.10
2023-01-17T20:59:14.608Z,24.00
2023-01-17T21:01:43.960Z,24.00
2023-01-17T21:04:13.191Z,24.50
2023-01-17T21:06:42.683Z,25.30
2023-01-17T21:09:15.382Z,25.90
2023-01-17T21:11:43.525Z,25.70
2023-01-17T21:14:11.390Z,25.30
2023-01-17T21:16:40.095Z,26.40
2023-01-17T21:19:12.198Z,26.30
2023-01-17T21:21:40.337Z,26.10
2023-01-17T21:24:08.798Z,25.90
2023-01-17T21:26:39.051Z,25.40
2023-01-17T21:29:07.303Z,24.70
2023-01-17T21:31:36.929Z,22.60
2023-01-17T21:34:07.583Z,27.00
2023-01-17T21:36:38.667Z,27.00
2023-01-17T21:39:11.347Z,28.80
2023-01-17T21:41:41.287Z,27.70
2023-01-17T21:44:14.650Z,28.00
2023-01-17T21:46:42.629Z,26.30
2023-01-17T21:49:12.018Z,29.10
2023-01-17T21:51:52.698Z,31.20
2023-01-17T21:54:43.713Z,28.80
2023-01-17T21:57:35.008Z,33.00
2023-01-17T22:00:06.505Z,31.90
2023-01-17T22:02:34.552Z,28.70
2023-01-17T22:05:02.404Z,27.50
2023-01-17T22:07:30.198Z,27.20
2023-01-17T22:09:58.237Z,23.40
2023-01-17T22:12:26.204Z,24.40
2023-01-17T22:14:54.692Z,25.70
2023-01-17T22:17:22.852Z,25.60
2023-01-17T22:19:50.818Z,26.40
2023-01-17T22:22:18.690Z,24.70
2023-01-17T22:24:47.067Z,25.80
2023-01-17T22:27:14.932Z,25.20
2023-01-17T22:29:42.692Z,25.90
2023-01-17T22:32:10.572Z,26.60
2023-01-17T22:34:38.421Z,27.60
2023-01-17T22:37:10.280Z,26.90
2023-01-17T22:39:39.217Z,27.40
2023-01-17T22:42:07.449Z,24.50
2023-01-17T22:44:35.308Z,23.30
2023-01-17T22:47:03.493Z,23.70
2023-01-17T22:49:31.405Z,24.10
2023-01-17T22:51:59.333Z,24.80
2023-01-17T22:54:27.182Z,24.40
2023-01-17T22:56:54.948Z,25.00
2023-01-17T22:59:24.252Z,25.90
2023-01-17T23:01:53.880Z,25.20
2023-01-17T23:04:21.719Z,24.60
2023-01-17T23:06:49.584Z,27.30
2023-01-17T23:09:17.767Z,28.10
2023-01-17T23:11:50.054Z,32.10
2023-01-17T23:14:22.394Z,33.70
2023-01-17T23:17:20.267Z,27.80
2023-01-17T23:19:51.161Z,27.40
2023-01-17T23:22:27.001Z,27.80
2023-01-17T23:24:58.098Z,27.50
2023-01-17T23:27:47.475Z,23.90
2023-01-17T23:30:39.293Z,22.40
2023-01-17T23:33:07.061Z,21.00
2023-01-17T23:35:41.573Z,21.90
2023-01-17T23:38:29.804Z,21.00
2023-01-17T23:41:27.626Z,20.90
2023-01-17T23:43:57.805Z,22.70
2023-01-17T23:46:26.741Z,21.10
2023-01-17T23:48:55.348Z,22.40
2023-01-17T23:51:23.456Z,25.10
2023-01-17T23:53:57.486Z,27.30
2023-01-17T23:56:25.549Z,24.90
2023-01-17T23:58:53.311Z,27.40
